sensor_id;sensor_type;location;lat;lon;timestamp;temperature;humidity
12060;DHT22;6091;51.432;6.880;2023-06-04T00:02:26;26.10;27.90
12060;DHT22;6091;51.432;6.880;2023-06-04T00:04:53;26.10;27.80
12060;DHT22;6091;51.432;6.880;2023-06-04T00:07:20;26.10;27.90
12060;DHT22;6091;51.432;6.880;2023-06-04T00:09:47;26.10;27.90
12060;DHT22;6091;51.432;6.880;2023-06-04T00:12:15;26.10;27.90
12060;DHT22;6091;51.432;6.880;2023-06-04T00:14:42;26.00;27.90
12060;DHT22;6091;51.432;6.880;2023-06-04T00:17:11;26.10;28.00
12060;DHT22;6091;51.432;6.880;2023-06-04T00:19:41;26.00;28.00
12060;DHT22;6091;51.432;6.880;2023-06-04T00:22:08;26.00;28.00
12060;DHT22;6091;51.432;6.880;2023-06-04T00:24:37;26.00;28.00
12060;DHT22;6091;51.432;6.880;2023-06-04T00:27:08;26.00;28.50
12060;DHT22;6091;51.432;6.880;2023-06-04T00:29:38;26.00;28.00
12060;DHT22;6091;51.432;6.880;2023-06-04T00:32:05;26.00;28.00
12060;DHT22;6091;51.432;6.880;2023-06-04T00:34:34;26.00;28.10
12060;DHT22;6091;51.432;6.880;2023-06-04T00:37:01;26.00;28.10
12060;DHT22;6091;51.432;6.880;2023-06-04T00:39:28;26.00;28.10
12060;DHT22;6091;51.432;6.880;2023-06-04T00:41:57;26.00;28.10
12060;DHT22;6091;51.432;6.880;2023-06-04T00:44:24;26.00;28.10
12060;DHT22;6091;51.432;6.880;2023-06-04T00:46:53;26.00;28.20
12060;DHT22;6091;51.432;6.880;2023-06-04T00:49:20;25.90;28.20
12060;DHT22;6091;51.432;6.880;2023-06-04T00:51:48;25.90;28.10
12060;DHT22;6091;51.432;6.880;2023-06-04T00:54:16;25.90;28.20
12060;DHT22;6091;51.432;6.880;2023-06-04T00:56:44;25.90;28.20
12060;DHT22;6091;51.432;6.880;2023-06-04T00:59:13;25.90;28.20
12060;DHT22;6091;51.432;6.880;2023-06-04T01:05:11;25.90;28.40
12060;DHT22;6091;51.432;6.880;2023-06-04T01:07:38;25.90;28.30
12060;DHT22;6091;51.432;6.880;2023-06-04T01:10:07;25.90;28.30
12060;DHT22;6091;51.432;6.880;2023-06-04T01:12:35;25.90;28.30
12060;DHT22;6091;51.432;6.880;2023-06-04T01:15:06;25.80;28.80
12060;DHT22;6091;51.432;6.880;2023-06-04T01:17:43;25.80;28.30
12060;DHT22;6091;51.432;6.880;2023-06-04T01:20:27;25.80;28.40
12060;DHT22;6091;51.432;6.880;2023-06-04T01:26:27;25.80;28.50
12060;DHT22;6091;51.432;6.880;2023-06-04T01:28:55;25.80;28.40
12060;DHT22;6091;51.432;6.880;2023-06-04T01:31:25;25.80;28.40
12060;DHT22;6091;51.432;6.880;2023-06-04T01:33:56;25.80;28.40
12060;DHT22;6091;51.432;6.880;2023-06-04T01:36:25;25.80;28.60
12060;DHT22;6091;51.432;6.880;2023-06-04T01:38:52;25.80;28.50
12060;DHT22;6091;51.432;6.880;2023-06-04T01:41:20;25.80;28.50
12060;DHT22;6091;51.432;6.880;2023-06-04T01:43:49;25.80;28.50
12060;DHT22;6091;51.432;6.880;2023-06-04T01:46:16;25.80;28.60
12060;DHT22;6091;51.432;6.880;2023-06-04T01:48:43;25.80;28.60
12060;DHT22;6091;51.432;6.880;2023-06-04T01:51:10;25.80;28.60
12060;DHT22;6091;51.432;6.880;2023-06-04T01:53:37;25.70;28.60
12060;DHT22;6091;51.432;6.880;2023-06-04T01:56:04;25.70;28.60
12060;DHT22;6091;51.432;6.880;2023-06-04T01:58:32;25.70;28.60
12060;DHT22;6091;51.432;6.880;2023-06-04T02:01:00;25.70;28.70
12060;DHT22;6091;51.432;6.880;2023-06-04T02:03:30;25.70;28.70
12060;DHT22;6091;51.432;6.880;2023-06-04T02:06:04;25.70;28.70
12060;DHT22;6091;51.432;6.880;2023-06-04T02:08:34;25.70;28.70
12060;DHT22;6091;51.432;6.880;2023-06-04T02:11:02;25.60;28.70
12060;DHT22;6091;51.432;6.880;2023-06-04T02:13:30;25.70;28.80
12060;DHT22;6091;51.432;6.880;2023-06-04T02:16:02;25.70;28.80
12060;DHT22;6091;51.432;6.880;2023-06-04T02:18:32;25.70;28.80
12060;DHT22;6091;51.432;6.880;2023-06-04T02:21:02;25.70;28.80
12060;DHT22;6091;51.432;6.880;2023-06-04T02:23:33;25.70;28.80
12060;DHT22;6091;51.432;6.880;2023-06-04T02:26:01;25.60;28.80
12060;DHT22;6091;51.432;6.880;2023-06-04T02:28:28;25.60;28.80
12060;DHT22;6091;51.432;6.880;2023-06-04T02:30:55;25.60;28.90
12060;DHT22;6091;51.432;6.880;2023-06-04T02:33:22;25.60;28.90
12060;DHT22;6091;51.432;6.880;2023-06-04T02:35:49;25.60;28.90
12060;DHT22;6091;51.432;6.880;2023-06-04T02:38:16;25.60;28.90
12060;DHT22;6091;51.432;6.880;2023-06-04T02:40:43;25.60;28.90
12060;DHT22;6091;51.432;6.880;2023-06-04T02:43:10;25.60;28.90
12060;DHT22;6091;51.432;6.880;2023-06-04T02:45:37;25.60;29.00
12060;DHT22;6091;51.432;6.880;2023-06-04T02:48:05;25.60;29.00
12060;DHT22;6091;51.432;6.880;2023-06-04T02:50:32;25.60;29.00
12060;DHT22;6091;51.432;6.880;2023-06-04T02:52:59;25.60;29.00
12060;DHT22;6091;51.432;6.880;2023-06-04T02:55:26;25.60;29.10
12060;DHT22;6091;51.432;6.880;2023-06-04T02:57:53;25.60;29.10
12060;DHT22;6091;51.432;6.880;2023-06-04T03:00:21;25.60;29.10
12060;DHT22;6091;51.432;6.880;2023-06-04T03:02:48;25.50;29.10
12060;DHT22;6091;51.432;6.880;2023-06-04T03:05:16;25.50;29.10
12060;DHT22;6091;51.432;6.880;2023-06-04T03:07:46;25.50;29.10
12060;DHT22;6091;51.432;6.880;2023-06-04T03:10:14;25.50;29.10
12060;DHT22;6091;51.432;6.880;2023-06-04T03:12:43;25.50;29.10
12060;DHT22;6091;51.432;6.880;2023-06-04T03:15:11;25.50;29.10
12060;DHT22;6091;51.432;6.880;2023-06-04T03:17:39;25.50;29.10
12060;DHT22;6091;51.432;6.880;2023-06-04T03:20:07;25.50;29.20
12060;DHT22;6091;51.432;6.880;2023-06-04T03:22:36;25.50;29.20
12060;DHT22;6091;51.432;6.880;2023-06-04T03:25:03;25.50;29.20
12060;DHT22;6091;51.432;6.880;2023-06-04T03:27:32;25.50;29.20
12060;DHT22;6091;51.432;6.880;2023-06-04T03:30:00;25.50;29.30
12060;DHT22;6091;51.432;6.880;2023-06-04T03:32:27;25.50;29.30
12060;DHT22;6091;51.432;6.880;2023-06-04T03:34:54;25.50;29.30
12060;DHT22;6091;51.432;6.880;2023-06-04T03:37:21;25.40;29.30
12060;DHT22;6091;51.432;6.880;2023-06-04T03:39:48;25.40;29.30
12060;DHT22;6091;51.432;6.880;2023-06-04T03:42:15;25.50;29.30
12060;DHT22;6091;51.432;6.880;2023-06-04T03:44:42;25.40;29.30
12060;DHT22;6091;51.432;6.880;2023-06-04T03:47:09;25.40;29.30
12060;DHT22;6091;51.432;6.880;2023-06-04T03:49:36;25.40;29.30
12060;DHT22;6091;51.432;6.880;2023-06-04T03:52:03;25.40;29.40
12060;DHT22;6091;51.432;6.880;2023-06-04T03:54:30;25.40;29.40
12060;DHT22;6091;51.432;6.880;2023-06-04T03:56:57;25.40;29.40
12060;DHT22;6091;51.432;6.880;2023-06-04T03:59:24;25.40;29.40
12060;DHT22;6091;51.432;6.880;2023-06-04T04:01:51;25.40;29.40
12060;DHT22;6091;51.432;6.880;2023-06-04T04:04:18;25.40;29.40
12060;DHT22;6091;51.432;6.880;2023-06-04T04:06:45;25.40;29.50
12060;DHT22;6091;51.432;6.880;2023-06-04T04:09:12;25.40;29.50
12060;DHT22;6091;51.432;6.880;2023-06-04T04:11:39;25.40;29.50
12060;DHT22;6091;51.432;6.880;2023-06-04T04:14:06;25.40;29.50
12060;DHT22;6091;51.432;6.880;2023-06-04T04:16:34;25.40;29.50
12060;DHT22;6091;51.432;6.880;2023-06-04T04:19:01;25.40;29.50
12060;DHT22;6091;51.432;6.880;2023-06-04T04:21:28;25.40;29.50
12060;DHT22;6091;51.432;6.880;2023-06-04T04:23:56;25.40;29.50
12060;DHT22;6091;51.432;6.880;2023-06-04T04:26:23;25.40;29.50
12060;DHT22;6091;51.432;6.880;2023-06-04T04:28:54;25.40;29.60
12060;DHT22;6091;51.432;6.880;2023-06-04T04:31:27;25.40;29.60
12060;DHT22;6091;51.432;6.880;2023-06-04T04:33:57;25.40;29.60
12060;DHT22;6091;51.432;6.880;2023-06-04T04:36:24;25.40;29.70
12060;DHT22;6091;51.432;6.880;2023-06-04T04:38:52;25.30;30.00
12060;DHT22;6091;51.432;6.880;2023-06-04T04:41:21;25.40;29.60
12060;DHT22;6091;51.432;6.880;2023-06-04T04:43:49;25.40;29.60
12060;DHT22;6091;51.432;6.880;2023-06-04T04:46:19;25.40;29.60
12060;DHT22;6091;51.432;6.880;2023-06-04T04:48:46;25.40;29.70
12060;DHT22;6091;51.432;6.880;2023-06-04T04:51:13;25.40;29.70
12060;DHT22;6091;51.432;6.880;2023-06-04T04:53:42;25.40;29.70
12060;DHT22;6091;51.432;6.880;2023-06-04T04:56:09;25.40;29.70
12060;DHT22;6091;51.432;6.880;2023-06-04T04:58:36;25.40;29.70
12060;DHT22;6091;51.432;6.880;2023-06-04T05:01:03;25.40;29.70
12060;DHT22;6091;51.432;6.880;2023-06-04T05:03:30;25.40;29.70
12060;DHT22;6091;51.432;6.880;2023-06-04T05:05:57;25.40;29.70
12060;DHT22;6091;51.432;6.880;2023-06-04T05:08:24;25.40;29.80
12060;DHT22;6091;51.432;6.880;2023-06-04T05:10:51;25.40;29.80
12060;DHT22;6091;51.432;6.880;2023-06-04T05:13:18;25.40;29.80
12060;DHT22;6091;51.432;6.880;2023-06-04T05:15:47;25.40;29.80
12060;DHT22;6091;51.432;6.880;2023-06-04T05:18:14;25.40;29.80
12060;DHT22;6091;51.432;6.880;2023-06-04T05:20:43;25.40;29.90
12060;DHT22;6091;51.432;6.880;2023-06-04T05:23:10;25.30;29.80
12060;DHT22;6091;51.432;6.880;2023-06-04T05:25:39;25.40;29.80
12060;DHT22;6091;51.432;6.880;2023-06-04T05:28:07;25.40;29.80
12060;DHT22;6091;51.432;6.880;2023-06-04T05:30:34;25.40;29.80
12060;DHT22;6091;51.432;6.880;2023-06-04T05:33:01;25.40;29.90
12060;DHT22;6091;51.432;6.880;2023-06-04T05:35:28;25.40;29.90
12060;DHT22;6091;51.432;6.880;2023-06-04T05:37:55;25.40;29.90
12060;DHT22;6091;51.432;6.880;2023-06-04T05:40:22;25.40;29.90
12060;DHT22;6091;51.432;6.880;2023-06-04T05:42:49;25.40;29.90
12060;DHT22;6091;51.432;6.880;2023-06-04T05:45:16;25.40;29.90
12060;DHT22;6091;51.432;6.880;2023-06-04T05:47:43;25.40;29.90
12060;DHT22;6091;51.432;6.880;2023-06-04T05:50:10;25.40;29.90
12060;DHT22;6091;51.432;6.880;2023-06-04T05:52:37;25.40;29.90
12060;DHT22;6091;51.432;6.880;2023-06-04T05:55:05;25.40;29.90
12060;DHT22;6091;51.432;6.880;2023-06-04T05:57:34;25.40;30.00
12060;DHT22;6091;51.432;6.880;2023-06-04T06:00:02;25.40;29.90
12060;DHT22;6091;51.432;6.880;2023-06-04T06:02:36;25.40;30.00
12060;DHT22;6091;51.432;6.880;2023-06-04T06:05:05;25.40;30.00
12060;DHT22;6091;51.432;6.880;2023-06-04T06:07:35;25.40;30.00
12060;DHT22;6091;51.432;6.880;2023-06-04T06:10:03;25.50;30.00
12060;DHT22;6091;51.432;6.880;2023-06-04T06:12:31;25.40;30.00
12060;DHT22;6091;51.432;6.880;2023-06-04T06:14:58;25.40;30.00
12060;DHT22;6091;51.432;6.880;2023-06-04T06:17:25;25.40;30.00
12060;DHT22;6091;51.432;6.880;2023-06-04T06:19:52;25.50;30.00
12060;DHT22;6091;51.432;6.880;2023-06-04T06:22:20;25.50;30.00
12060;DHT22;6091;51.432;6.880;2023-06-04T06:24:47;25.50;30.00
12060;DHT22;6091;51.432;6.880;2023-06-04T06:27:17;25.50;30.00
12060;DHT22;6091;51.432;6.880;2023-06-04T06:29:44;25.50;30.00
12060;DHT22;6091;51.432;6.880;2023-06-04T06:32:12;25.50;30.00
12060;DHT22;6091;51.432;6.880;2023-06-04T06:34:39;25.50;30.00
12060;DHT22;6091;51.432;6.880;2023-06-04T06:37:07;25.50;30.00
12060;DHT22;6091;51.432;6.880;2023-06-04T06:39:34;25.50;30.00
12060;DHT22;6091;51.432;6.880;2023-06-04T06:42:01;25.50;30.00
12060;DHT22;6091;51.432;6.880;2023-06-04T06:44:28;25.60;30.10
12060;DHT22;6091;51.432;6.880;2023-06-04T06:46:55;25.50;30.00
12060;DHT22;6091;51.432;6.880;2023-06-04T06:49:22;25.50;30.00
12060;DHT22;6091;51.432;6.880;2023-06-04T06:51:49;25.60;30.10
12060;DHT22;6091;51.432;6.880;2023-06-04T06:54:16;25.60;30.10
12060;DHT22;6091;51.432;6.880;2023-06-04T06:56:43;25.60;30.10
12060;DHT22;6091;51.432;6.880;2023-06-04T06:59:10;25.60;30.10
12060;DHT22;6091;51.432;6.880;2023-06-04T07:01:37;25.60;30.10
12060;DHT22;6091;51.432;6.880;2023-06-04T07:04:04;25.60;30.10
12060;DHT22;6091;51.432;6.880;2023-06-04T07:06:33;25.60;30.10
12060;DHT22;6091;51.432;6.880;2023-06-04T07:09:00;25.60;30.10
12060;DHT22;6091;51.432;6.880;2023-06-04T07:11:27;25.70;30.20
12060;DHT22;6091;51.432;6.880;2023-06-04T07:13:54;25.60;30.20
12060;DHT22;6091;51.432;6.880;2023-06-04T07:16:21;25.70;30.20
12060;DHT22;6091;51.432;6.880;2023-06-04T07:18:48;25.70;30.20
12060;DHT22;6091;51.432;6.880;2023-06-04T07:21:18;25.70;30.90
12060;DHT22;6091;51.432;6.880;2023-06-04T07:23:50;25.80;30.30
12060;DHT22;6091;51.432;6.880;2023-06-04T07:26:18;25.80;30.30
12060;DHT22;6091;51.432;6.880;2023-06-04T07:28:45;25.80;30.40
12060;DHT22;6091;51.432;6.880;2023-06-04T07:31:15;25.80;30.40
12060;DHT22;6091;51.432;6.880;2023-06-04T07:33:43;25.80;30.50
12060;DHT22;6091;51.432;6.880;2023-06-04T07:36:12;25.80;30.50
12060;DHT22;6091;51.432;6.880;2023-06-04T07:38:40;25.90;30.60
12060;DHT22;6091;51.432;6.880;2023-06-04T07:41:08;25.90;30.70
12060;DHT22;6091;51.432;6.880;2023-06-04T07:43:36;25.90;30.70
12060;DHT22;6091;51.432;6.880;2023-06-04T07:46:04;26.00;30.80
12060;DHT22;6091;51.432;6.880;2023-06-04T07:48:31;26.00;30.80
12060;DHT22;6091;51.432;6.880;2023-06-04T07:50:59;26.00;30.90
12060;DHT22;6091;51.432;6.880;2023-06-04T07:53:27;26.00;30.80
12060;DHT22;6091;51.432;6.880;2023-06-04T07:55:55;26.00;30.80
12060;DHT22;6091;51.432;6.880;2023-06-04T07:58:24;26.10;30.90
12060;DHT22;6091;51.432;6.880;2023-06-04T08:00:52;26.10;30.90
12060;DHT22;6091;51.432;6.880;2023-06-04T08:03:20;26.20;31.00
12060;DHT22;6091;51.432;6.880;2023-06-04T08:05:48;26.20;31.00
12060;DHT22;6091;51.432;6.880;2023-06-04T08:08:15;26.20;30.90
12060;DHT22;6091;51.432;6.880;2023-06-04T08:10:42;26.20;31.00
12060;DHT22;6091;51.432;6.880;2023-06-04T08:13:09;26.30;31.00
12060;DHT22;6091;51.432;6.880;2023-06-04T08:15:36;26.30;31.00
12060;DHT22;6091;51.432;6.880;2023-06-04T08:18:04;26.30;31.00
12060;DHT22;6091;51.432;6.880;2023-06-04T08:20:31;26.40;31.00
12060;DHT22;6091;51.432;6.880;2023-06-04T08:22:58;26.40;31.00
12060;DHT22;6091;51.432;6.880;2023-06-04T08:25:25;26.40;31.00
12060;DHT22;6091;51.432;6.880;2023-06-04T08:27:53;26.50;31.00
12060;DHT22;6091;51.432;6.880;2023-06-04T08:30:20;26.50;31.00
12060;DHT22;6091;51.432;6.880;2023-06-04T08:32:47;26.50;31.00
12060;DHT22;6091;51.432;6.880;2023-06-04T08:35:15;26.50;30.90
12060;DHT22;6091;51.432;6.880;2023-06-04T08:37:42;26.50;30.90
12060;DHT22;6091;51.432;6.880;2023-06-04T08:40:09;26.60;31.00
12060;DHT22;6091;51.432;6.880;2023-06-04T08:42:44;26.60;31.00
12060;DHT22;6091;51.432;6.880;2023-06-04T08:45:12;26.60;31.00
12060;DHT22;6091;51.432;6.880;2023-06-04T08:47:44;26.60;30.90
12060;DHT22;6091;51.432;6.880;2023-06-04T08:50:17;26.70;31.00
12060;DHT22;6091;51.432;6.880;2023-06-04T08:52:46;26.70;30.90
12060;DHT22;6091;51.432;6.880;2023-06-04T08:55:14;26.70;30.90
12060;DHT22;6091;51.432;6.880;2023-06-04T08:57:42;26.70;30.90
12060;DHT22;6091;51.432;6.880;2023-06-04T09:00:09;26.70;30.80
12060;DHT22;6091;51.432;6.880;2023-06-04T09:02:37;26.80;30.90
12060;DHT22;6091;51.432;6.880;2023-06-04T09:05:05;26.80;30.90
12060;DHT22;6091;51.432;6.880;2023-06-04T09:07:36;26.80;30.80
12060;DHT22;6091;51.432;6.880;2023-06-04T09:10:07;26.80;30.80
12060;DHT22;6091;51.432;6.880;2023-06-04T09:12:43;26.80;30.80
12060;DHT22;6091;51.432;6.880;2023-06-04T09:15:14;26.80;30.80
12060;DHT22;6091;51.432;6.880;2023-06-04T09:17:41;26.80;30.70
12060;DHT22;6091;51.432;6.880;2023-06-04T09:20:18;26.80;30.80
12060;DHT22;6091;51.432;6.880;2023-06-04T09:22:46;26.90;30.80
12060;DHT22;6091;51.432;6.880;2023-06-04T09:27:53;26.90;30.80
12060;DHT22;6091;51.432;6.880;2023-06-04T09:30:23;26.90;31.40
12060;DHT22;6091;51.432;6.880;2023-06-04T09:32:50;26.90;30.80
12060;DHT22;6091;51.432;6.880;2023-06-04T09:35:20;26.90;30.80
12060;DHT22;6091;51.432;6.880;2023-06-04T09:37:55;27.00;30.80
12060;DHT22;6091;51.432;6.880;2023-06-04T09:40:23;26.90;30.80
12060;DHT22;6091;51.432;6.880;2023-06-04T09:42:51;26.90;30.70
12060;DHT22;6091;51.432;6.880;2023-06-04T09:45:32;27.00;30.80
12060;DHT22;6091;51.432;6.880;2023-06-04T09:48:02;27.00;30.80
12060;DHT22;6091;51.432;6.880;2023-06-04T09:50:34;27.00;30.70
12060;DHT22;6091;51.432;6.880;2023-06-04T09:53:19;27.00;30.70
12060;DHT22;6091;51.432;6.880;2023-06-04T09:55:59;27.00;30.70
12060;DHT22;6091;51.432;6.880;2023-06-04T09:58:28;27.10;30.80
12060;DHT22;6091;51.432;6.880;2023-06-04T10:00:57;27.10;30.70
12060;DHT22;6091;51.432;6.880;2023-06-04T10:03:28;27.10;30.80
12060;DHT22;6091;51.432;6.880;2023-06-04T10:06:06;27.10;30.80
12060;DHT22;6091;51.432;6.880;2023-06-04T10:08:34;27.10;30.80
12060;DHT22;6091;51.432;6.880;2023-06-04T10:11:02;27.10;30.80
12060;DHT22;6091;51.432;6.880;2023-06-04T10:13:35;27.10;30.70
12060;DHT22;6091;51.432;6.880;2023-06-04T10:16:08;27.20;30.80
12060;DHT22;6091;51.432;6.880;2023-06-04T10:18:55;27.20;30.70
12060;DHT22;6091;51.432;6.880;2023-06-04T10:21:24;27.20;30.70
12060;DHT22;6091;51.432;6.880;2023-06-04T10:23:53;27.20;30.80
12060;DHT22;6091;51.432;6.880;2023-06-04T10:26:21;27.20;30.80
12060;DHT22;6091;51.432;6.880;2023-06-04T10:28:49;27.20;30.90
12060;DHT22;6091;51.432;6.880;2023-06-04T10:31:17;27.30;30.90
12060;DHT22;6091;51.432;6.880;2023-06-04T10:33:44;27.30;30.80
12060;DHT22;6091;51.432;6.880;2023-06-04T10:36:19;27.30;30.80
12060;DHT22;6091;51.432;6.880;2023-06-04T10:38:54;27.30;30.80
12060;DHT22;6091;51.432;6.880;2023-06-04T10:41:23;27.40;30.80
12060;DHT22;6091;51.432;6.880;2023-06-04T10:44:00;27.40;30.80
12060;DHT22;6091;51.432;6.880;2023-06-04T10:46:38;27.40;30.70
12060;DHT22;6091;51.432;6.880;2023-06-04T10:49:09;27.50;30.90
12060;DHT22;6091;51.432;6.880;2023-06-04T10:51:41;27.50;30.90
12060;DHT22;6091;51.432;6.880;2023-06-04T10:54:10;27.50;30.90
12060;DHT22;6091;51.432;6.880;2023-06-04T10:56:50;27.60;31.00
12060;DHT22;6091;51.432;6.880;2023-06-04T10:59:18;27.60;31.00
12060;DHT22;6091;51.432;6.880;2023-06-04T11:01:47;27.60;31.00
12060;DHT22;6091;51.432;6.880;2023-06-04T11:04:21;27.70;31.00
12060;DHT22;6091;51.432;6.880;2023-06-04T11:07:04;27.80;30.80
12060;DHT22;6091;51.432;6.880;2023-06-04T11:09:37;27.90;30.80
12060;DHT22;6091;51.432;6.880;2023-06-04T11:12:05;27.90;30.80
12060;DHT22;6091;51.432;6.880;2023-06-04T11:14:33;28.00;30.80
12060;DHT22;6091;51.432;6.880;2023-06-04T11:17:10;28.10;30.80
12060;DHT22;6091;51.432;6.880;2023-06-04T11:19:38;28.20;30.70
12060;DHT22;6091;51.432;6.880;2023-06-04T11:22:05;28.20;30.80
12060;DHT22;6091;51.432;6.880;2023-06-04T11:24:36;28.30;30.80
12060;DHT22;6091;51.432;6.880;2023-06-04T11:27:03;28.30;30.70
12060;DHT22;6091;51.432;6.880;2023-06-04T11:29:40;28.40;30.70
12060;DHT22;6091;51.432;6.880;2023-06-04T11:32:07;28.50;30.70
12060;DHT22;6091;51.432;6.880;2023-06-04T11:34:34;28.50;30.50
12060;DHT22;6091;51.432;6.880;2023-06-04T11:37:10;28.60;30.50
12060;DHT22;6091;51.432;6.880;2023-06-04T11:39:38;28.70;30.40
12060;DHT22;6091;51.432;6.880;2023-06-04T11:42:06;28.80;30.60
12060;DHT22;6091;51.432;6.880;2023-06-04T11:44:34;28.90;30.60
12060;DHT22;6091;51.432;6.880;2023-06-04T11:47:05;28.90;30.50
12060;DHT22;6091;51.432;6.880;2023-06-04T11:49:34;29.10;30.50
12060;DHT22;6091;51.432;6.880;2023-06-04T11:52:04;29.20;30.50
12060;DHT22;6091;51.432;6.880;2023-06-04T11:54:32;29.30;30.50
12060;DHT22;6091;51.432;6.880;2023-06-04T11:57:04;29.40;30.50
12060;DHT22;6091;51.432;6.880;2023-06-04T11:59:31;29.60;30.60
12060;DHT22;6091;51.432;6.880;2023-06-04T12:01:59;29.70;30.50
12060;DHT22;6091;51.432;6.880;2023-06-04T12:04:29;29.80;30.50
12060;DHT22;6091;51.432;6.880;2023-06-04T12:06:59;30.00;30.30
12060;DHT22;6091;51.432;6.880;2023-06-04T12:09:29;30.10;30.40
12060;DHT22;6091;51.432;6.880;2023-06-04T12:12:02;30.30;30.40
12060;DHT22;6091;51.432;6.880;2023-06-04T12:14:31;30.50;30.30
12060;DHT22;6091;51.432;6.880;2023-06-04T12:17:00;30.70;30.20
12060;DHT22;6091;51.432;6.880;2023-06-04T12:19:46;30.90;30.10
12060;DHT22;6091;51.432;6.880;2023-06-04T12:22:17;31.20;29.10
12060;DHT22;6091;51.432;6.880;2023-06-04T12:24:53;31.30;29.20
12060;DHT22;6091;51.432;6.880;2023-06-04T12:27:24;31.50;28.50
12060;DHT22;6091;51.432;6.880;2023-06-04T12:30:02;31.60;28.70
12060;DHT22;6091;51.432;6.880;2023-06-04T12:32:35;31.80;28.10
12060;DHT22;6091;51.432;6.880;2023-06-04T12:35:03;31.90;27.70
12060;DHT22;6091;51.432;6.880;2023-06-04T12:37:30;32.10;28.00
12060;DHT22;6091;51.432;6.880;2023-06-04T12:39:57;32.20;27.70
12060;DHT22;6091;51.432;6.880;2023-06-04T12:42:24;32.30;27.50
12060;DHT22;6091;51.432;6.880;2023-06-04T12:44:52;32.50;27.10
12060;DHT22;6091;51.432;6.880;2023-06-04T12:47:19;32.60;27.70
12060;DHT22;6091;51.432;6.880;2023-06-04T12:49:47;32.00;26.80
12060;DHT22;6091;51.432;6.880;2023-06-04T12:52:16;32.80;26.90
12060;DHT22;6091;51.432;6.880;2023-06-04T12:54:44;32.90;26.60
12060;DHT22;6091;51.432;6.880;2023-06-04T12:57:11;33.00;26.70
12060;DHT22;6091;51.432;6.880;2023-06-04T12:59:38;33.10;26.40
12060;DHT22;6091;51.432;6.880;2023-06-04T13:02:05;33.20;26.30
12060;DHT22;6091;51.432;6.880;2023-06-04T13:04:32;33.30;26.20
12060;DHT22;6091;51.432;6.880;2023-06-04T13:07:01;33.30;26.10
12060;DHT22;6091;51.432;6.880;2023-06-04T13:09:28;33.50;26.00
12060;DHT22;6091;51.432;6.880;2023-06-04T13:11:55;33.50;25.90
12060;DHT22;6091;51.432;6.880;2023-06-04T13:14:22;33.60;25.90
12060;DHT22;6091;51.432;6.880;2023-06-04T13:16:49;33.60;25.60
12060;DHT22;6091;51.432;6.880;2023-06-04T13:19:18;33.70;25.70
12060;DHT22;6091;51.432;6.880;2023-06-04T13:21:49;33.70;25.70
12060;DHT22;6091;51.432;6.880;2023-06-04T13:24:16;33.70;25.40
12060;DHT22;6091;51.432;6.880;2023-06-04T13:26:43;33.60;25.10
12060;DHT22;6091;51.432;6.880;2023-06-04T13:29:10;33.50;25.00
12060;DHT22;6091;51.432;6.880;2023-06-04T13:31:37;33.40;24.70
12060;DHT22;6091;51.432;6.880;2023-06-04T13:34:06;33.30;24.50
12060;DHT22;6091;51.432;6.880;2023-06-04T13:36:53;33.10;24.30
12060;DHT22;6091;51.432;6.880;2023-06-04T13:39:21;32.90;24.20
12060;DHT22;6091;51.432;6.880;2023-06-04T13:41:49;32.60;24.10
12060;DHT22;6091;51.432;6.880;2023-06-04T13:44:16;32.40;24.10
12060;DHT22;6091;51.432;6.880;2023-06-04T13:46:43;32.20;23.90
12060;DHT22;6091;51.432;6.880;2023-06-04T13:49:10;32.10;23.90
12060;DHT22;6091;51.432;6.880;2023-06-04T13:51:37;32.00;23.90
12060;DHT22;6091;51.432;6.880;2023-06-04T13:54:04;31.80;23.80
12060;DHT22;6091;51.432;6.880;2023-06-04T13:56:31;31.70;23.90
12060;DHT22;6091;51.432;6.880;2023-06-04T13:58:58;31.50;23.80
12060;DHT22;6091;51.432;6.880;2023-06-04T14:01:25;31.40;23.80
12060;DHT22;6091;51.432;6.880;2023-06-04T14:03:52;31.30;24.00
12060;DHT22;6091;51.432;6.880;2023-06-04T14:06:19;31.20;24.10
12060;DHT22;6091;51.432;6.880;2023-06-04T14:08:46;31.00;24.10
12060;DHT22;6091;51.432;6.880;2023-06-04T14:11:13;30.90;24.10
12060;DHT22;6091;51.432;6.880;2023-06-04T14:13:41;30.80;24.20
12060;DHT22;6091;51.432;6.880;2023-06-04T14:16:11;30.60;24.20
12060;DHT22;6091;51.432;6.880;2023-06-04T14:18:38;30.50;24.80
12060;DHT22;6091;51.432;6.880;2023-06-04T14:21:05;30.40;24.30
12060;DHT22;6091;51.432;6.880;2023-06-04T14:23:32;30.30;24.30
12060;DHT22;6091;51.432;6.880;2023-06-04T14:25:59;30.10;24.40
12060;DHT22;6091;51.432;6.880;2023-06-04T14:28:26;30.00;24.40
12060;DHT22;6091;51.432;6.880;2023-06-04T14:30:53;30.00;25.00
12060;DHT22;6091;51.432;6.880;2023-06-04T14:33:21;29.90;24.60
12060;DHT22;6091;51.432;6.880;2023-06-04T14:35:47;29.80;24.60
12060;DHT22;6091;51.432;6.880;2023-06-04T14:38:14;29.70;24.60
12060;DHT22;6091;51.432;6.880;2023-06-04T14:40:43;29.60;24.60
12060;DHT22;6091;51.432;6.880;2023-06-04T14:43:13;29.60;24.70
12060;DHT22;6091;51.432;6.880;2023-06-04T14:45:40;29.50;24.70
12060;DHT22;6091;51.432;6.880;2023-06-04T14:48:08;29.40;24.70
12060;DHT22;6091;51.432;6.880;2023-06-04T14:50:38;29.40;24.80
12060;DHT22;6091;51.432;6.880;2023-06-04T14:53:05;29.30;24.80
12060;DHT22;6091;51.432;6.880;2023-06-04T14:55:35;29.30;24.90
12060;DHT22;6091;51.432;6.880;2023-06-04T14:58:02;29.30;24.90
12060;DHT22;6091;51.432;6.880;2023-06-04T15:00:31;29.20;25.00
12060;DHT22;6091;51.432;6.880;2023-06-04T15:02:58;29.10;25.00
12060;DHT22;6091;51.432;6.880;2023-06-04T15:05:31;29.20;25.10
12060;DHT22;6091;51.432;6.880;2023-06-04T15:07:59;29.20;25.10
12060;DHT22;6091;51.432;6.880;2023-06-04T15:10:26;29.20;25.10
12060;DHT22;6091;51.432;6.880;2023-06-04T15:12:54;29.10;25.10
12060;DHT22;6091;51.432;6.880;2023-06-04T15:15:21;29.10;25.10
12060;DHT22;6091;51.432;6.880;2023-06-04T15:17:49;29.10;25.10
12060;DHT22;6091;51.432;6.880;2023-06-04T15:20:16;29.00;25.10
12060;DHT22;6091;51.432;6.880;2023-06-04T15:22:44;29.10;25.20
12060;DHT22;6091;51.432;6.880;2023-06-04T15:25:11;29.10;25.20
12060;DHT22;6091;51.432;6.880;2023-06-04T15:27:38;29.10;25.20
12060;DHT22;6091;51.432;6.880;2023-06-04T15:30:06;29.10;25.30
12060;DHT22;6091;51.432;6.880;2023-06-04T15:32:33;29.10;25.30
12060;DHT22;6091;51.432;6.880;2023-06-04T15:35:01;29.00;25.30
12060;DHT22;6091;51.432;6.880;2023-06-04T15:37:29;29.10;25.40
12060;DHT22;6091;51.432;6.880;2023-06-04T15:39:56;29.20;25.50
12060;DHT22;6091;51.432;6.880;2023-06-04T15:42:24;29.20;25.50
12060;DHT22;6091;51.432;6.880;2023-06-04T15:44:51;29.30;25.50
12060;DHT22;6091;51.432;6.880;2023-06-04T15:47:18;29.40;25.60
12060;DHT22;6091;51.432;6.880;2023-06-04T15:49:46;29.50;25.60
12060;DHT22;6091;51.432;6.880;2023-06-04T15:52:13;29.60;25.50
12060;DHT22;6091;51.432;6.880;2023-06-04T15:54:40;29.60;25.50
12060;DHT22;6091;51.432;6.880;2023-06-04T15:57:12;29.70;25.40
12060;DHT22;6091;51.432;6.880;2023-06-04T15:59:41;29.70;25.40
12060;DHT22;6091;51.432;6.880;2023-06-04T16:02:08;29.70;25.80
12060;DHT22;6091;51.432;6.880;2023-06-04T16:04:35;29.70;25.30